createdAt,value
2017-10-10T00:00:02.857Z,22.60
2017-10-10T00:02:29.546Z,21.30
2017-10-10T00:04:56.187Z,22.83
2017-10-10T00:07:22.877Z,25.97
2017-10-10T00:09:49.565Z,25.70
2017-10-10T00:12:16.256Z,22.20
2017-10-10T00:14:42.931Z,19.47
2017-10-10T00:17:09.599Z,21.47
2017-10-10T00:19:36.244Z,19.23
2017-10-10T00:22:02.894Z,21.00
2017-10-10T00:24:29.620Z,21.43
2017-10-10T00:26:56.270Z,18.50
2017-10-10T00:29:22.939Z,17.83
2017-10-10T00:31:49.617Z,17.00
2017-10-10T00:34:16.295Z,17.20
2017-10-10T00:36:42.939Z,23.13
2017-10-10T00:39:09.611Z,16.97
2017-10-10T00:41:36.275Z,16.90
2017-10-10T00:44:02.947Z,14.60
2017-10-10T00:46:29.612Z,18.20
2017-10-10T00:48:56.282Z,21.27
2017-10-10T00:51:22.949Z,14.10
2017-10-10T00:53:49.600Z,23.63
2017-10-10T00:56:16.284Z,13.70
2017-10-10T00:58:42.936Z,16.53
2017-10-10T01:01:09.612Z,13.23
2017-10-10T01:03:36.307Z,17.80
2017-10-10T01:06:02.961Z,12.37
2017-10-10T01:08:29.651Z,16.57
2017-10-10T01:10:56.328Z,14.83
2017-10-10T01:13:22.985Z,13.80
2017-10-10T01:15:49.644Z,14.37
2017-10-10T01:18:16.308Z,14.03
2017-10-10T01:20:42.998Z,14.27
2017-10-10T01:23:09.678Z,20.23
2017-10-10T01:25:36.356Z,15.63
2017-10-10T01:28:03.020Z,16.00
2017-10-10T01:30:29.696Z,18.33
2017-10-10T01:32:56.380Z,15.23
2017-10-10T01:35:23.039Z,17.50
2017-10-10T01:37:49.702Z,14.43
2017-10-10T01:40:16.392Z,15.30
2017-10-10T01:42:43.062Z,15.77
2017-10-10T01:45:09.732Z,13.43
2017-10-10T01:47:36.406Z,14.73
2017-10-10T01:50:03.087Z,14.87
2017-10-10T01:52:29.793Z,16.67
2017-10-10T01:54:56.863Z,16.57
2017-10-10T01:57:23.506Z,18.97
2017-10-10T01:59:50.167Z,13.57
2017-10-10T02:02:16.881Z,14.70
2017-10-10T02:04:43.544Z,12.27
2017-10-10T02:07:10.227Z,19.37
2017-10-10T02:09:36.921Z,19.17
2017-10-10T02:12:03.634Z,16.40
2017-10-10T02:14:30.310Z,15.13
2017-10-10T02:16:56.973Z,15.20
2017-10-10T02:19:23.661Z,16.67
2017-10-10T02:21:50.319Z,17.83
2017-10-10T02:24:16.992Z,21.77
2017-10-10T02:26:45.600Z,12.50
2017-10-10T02:29:12.262Z,15.57
2017-10-10T02:31:38.962Z,15.03
2017-10-10T02:34:05.630Z,16.13
2017-10-10T02:36:32.308Z,17.93
2017-10-10T02:38:58.965Z,18.37
2017-10-10T02:41:25.647Z,20.37
2017-10-10T02:43:52.323Z,21.13
2017-10-10T02:46:19.028Z,18.17
2017-10-10T02:48:45.701Z,17.47
2017-10-10T02:51:12.383Z,16.77
2017-10-10T02:53:39.081Z,14.43
2017-10-10T02:56:05.777Z,14.90
2017-10-10T02:58:32.488Z,17.03
2017-10-10T03:00:59.173Z,15.20
2017-10-10T03:03:25.837Z,16.23
2017-10-10T03:05:52.494Z,17.97
2017-10-10T03:08:19.172Z,17.43
2017-10-10T03:10:45.889Z,18.30
2017-10-10T03:13:12.577Z,14.93
2017-10-10T03:15:39.263Z,17.13
2017-10-10T03:18:05.953Z,19.80
2017-10-10T03:20:32.671Z,19.63
2017-10-10T03:22:59.362Z,18.40
2017-10-10T03:25:26.029Z,17.73
2017-10-10T03:27:52.721Z,18.10
2017-10-10T03:30:19.400Z,18.53
2017-10-10T03:32:46.136Z,19.57
2017-10-10T03:35:12.825Z,18.00
2017-10-10T03:37:39.505Z,18.73
2017-10-10T03:40:06.203Z,17.90
2017-10-10T03:42:32.969Z,30.23
2017-10-10T03:44:59.693Z,22.57
2017-10-10T03:47:26.363Z,20.17
2017-10-10T03:49:53.057Z,20.80
2017-10-10T03:52:19.727Z,26.17
2017-10-10T03:54:46.391Z,25.87
2017-10-10T03:57:13.098Z,19.53
2017-10-10T03:59:39.756Z,20.60
2017-10-10T04:02:06.436Z,19.43
2017-10-10T04:04:33.124Z,31.10
2017-10-10T04:06:59.788Z,24.33
2017-10-10T04:09:26.469Z,18.93
2017-10-10T04:11:53.151Z,18.20
2017-10-10T04:14:19.845Z,21.97
2017-10-10T04:16:46.593Z,21.30
2017-10-10T04:19:13.259Z,32.47
2017-10-10T04:21:39.943Z,20.53
2017-10-10T04:24:06.623Z,28.37
2017-10-10T04:26:33.302Z,25.17
2017-10-10T04:28:59.968Z,23.77
2017-10-10T04:31:26.657Z,26.73
2017-10-10T04:33:53.338Z,24.57
2017-10-10T04:36:20.004Z,27.53
2017-10-10T04:38:46.689Z,32.70
2017-10-10T04:41:13.384Z,33.20
2017-10-10T04:43:40.057Z,27.80
2017-10-10T04:46:06.752Z,28.07
2017-10-10T04:48:33.412Z,28.60
2017-10-10T04:51:00.161Z,29.40
2017-10-10T04:53:26.823Z,30.53
2017-10-10T04:55:53.550Z,29.23
2017-10-10T04:58:20.242Z,27.40
2017-10-10T05:00:46.924Z,28.23
2017-10-10T05:03:13.607Z,43.13
2017-10-10T05:05:40.301Z,28.63
2017-10-10T05:08:07.004Z,31.70
2017-10-10T05:10:33.664Z,31.53
2017-10-10T05:13:00.362Z,35.33
2017-10-10T05:15:27.018Z,31.20
2017-10-10T05:17:53.726Z,35.50
2017-10-10T05:20:20.402Z,26.70
2017-10-10T05:22:47.056Z,31.37
2017-10-10T05:25:13.730Z,34.03
2017-10-10T05:27:40.522Z,32.20
2017-10-10T05:30:07.194Z,36.77
2017-10-10T05:32:33.885Z,30.00
2017-10-10T05:35:00.546Z,30.97
2017-10-10T05:37:27.248Z,32.03
2017-10-10T05:39:53.925Z,33.97
2017-10-10T05:42:20.589Z,32.13
2017-10-10T05:44:47.286Z,36.00
2017-10-10T05:47:13.959Z,30.83
2017-10-10T05:49:40.650Z,31.40
2017-10-10T05:52:07.318Z,40.77
2017-10-10T05:54:33.989Z,31.50
2017-10-10T05:57:00.665Z,29.47
2017-10-10T05:59:27.344Z,31.37
2017-10-10T06:01:54.051Z,32.83
2017-10-10T06:04:20.737Z,34.13
2017-10-10T06:06:47.436Z,32.10
2017-10-10T06:09:14.142Z,37.50
2017-10-10T06:11:40.826Z,36.37
2017-10-10T06:14:07.505Z,35.87
2017-10-10T06:16:34.193Z,34.97
2017-10-10T06:19:00.886Z,44.50
2017-10-10T06:21:27.569Z,38.83
2017-10-10T06:23:54.265Z,36.77
2017-10-10T06:26:20.973Z,34.10
2017-10-10T06:28:47.630Z,37.03
2017-10-10T06:31:14.380Z,35.23
2017-10-10T06:33:41.049Z,39.40
2017-10-10T06:36:07.745Z,41.20
2017-10-10T06:38:34.456Z,42.70
2017-10-10T06:41:01.135Z,43.53
2017-10-10T06:43:27.816Z,42.00
2017-10-10T06:45:54.516Z,51.47
2017-10-10T06:48:21.206Z,39.97
2017-10-10T06:50:47.871Z,46.83
2017-10-10T06:53:14.581Z,47.67
2017-10-10T06:55:41.261Z,44.97
2017-10-10T06:58:07.957Z,44.00
2017-10-10T07:00:34.630Z,44.20
2017-10-10T07:03:01.300Z,43.93
2017-10-10T07:05:27.989Z,49.90
2017-10-10T07:07:54.700Z,47.07
2017-10-10T07:10:21.393Z,44.60
2017-10-10T07:12:48.078Z,51.13
2017-10-10T07:15:14.797Z,49.80
2017-10-10T07:17:41.482Z,46.60
2017-10-10T07:20:08.165Z,48.13
2017-10-10T07:22:34.852Z,45.97
2017-10-10T07:25:01.510Z,49.03
2017-10-10T07:27:28.207Z,43.80
2017-10-10T07:29:54.884Z,54.40
2017-10-10T07:32:21.911Z,45.77
2017-10-10T07:34:48.569Z,36.50
2017-10-10T07:37:15.270Z,56.30
2017-10-10T07:39:41.953Z,42.03
2017-10-10T07:42:08.666Z,37.70
2017-10-10T07:44:35.312Z,42.40
2017-10-10T07:47:01.978Z,39.17
2017-10-10T07:49:28.676Z,42.73
2017-10-10T07:51:55.334Z,41.60
2017-10-10T07:54:22.022Z,44.93
2017-10-10T07:56:48.686Z,42.30
2017-10-10T07:59:15.366Z,43.30
2017-10-10T08:01:42.050Z,45.57
2017-10-10T08:04:08.695Z,45.80
2017-10-10T08:06:35.392Z,43.20
2017-10-10T08:09:02.108Z,37.23
2017-10-10T08:11:28.772Z,38.83
2017-10-10T08:13:55.461Z,44.27
2017-10-10T08:16:22.127Z,38.37
2017-10-10T08:18:48.819Z,39.57
2017-10-10T08:21:15.488Z,39.80
2017-10-10T08:23:42.152Z,40.90
2017-10-10T08:26:08.841Z,42.00
2017-10-10T08:28:35.530Z,36.30
2017-10-10T08:31:02.204Z,47.43
2017-10-10T08:33:28.884Z,39.47
2017-10-10T08:35:55.606Z,39.70
2017-10-10T08:38:22.309Z,39.23
2017-10-10T08:40:49.189Z,45.70
2017-10-10T08:43:15.887Z,40.40
2017-10-10T08:45:42.561Z,38.30
2017-10-10T08:48:09.245Z,36.70
2017-10-10T08:50:35.936Z,46.77
2017-10-10T08:53:02.642Z,41.17
2017-10-10T08:55:29.321Z,32.90
2017-10-10T08:57:56.053Z,34.70
2017-10-10T09:00:22.707Z,38.17
2017-10-10T09:02:49.393Z,43.60
2017-10-10T09:05:16.057Z,32.43
2017-10-10T09:07:42.751Z,33.60
2017-10-10T09:10:09.441Z,32.10
2017-10-10T09:12:36.144Z,28.87
2017-10-10T09:15:02.825Z,33.10
2017-10-10T09:17:29.493Z,28.23
2017-10-10T09:19:56.271Z,33.03
2017-10-10T09:22:22.917Z,29.43
2017-10-10T09:24:49.601Z,28.47
2017-10-10T09:27:16.282Z,28.10
2017-10-10T09:29:42.960Z,34.33
2017-10-10T09:32:09.646Z,30.97
2017-10-10T09:34:36.349Z,27.70
2017-10-10T09:37:03.016Z,24.63
2017-10-10T09:39:29.694Z,29.07
2017-10-10T09:41:56.348Z,26.83
2017-10-10T09:44:23.063Z,27.30
2017-10-10T09:46:49.719Z,27.57
2017-10-10T09:49:16.414Z,30.87
2017-10-10T09:51:43.110Z,24.60
2017-10-10T09:54:09.825Z,20.53
2017-10-10T09:56:36.538Z,26.40
2017-10-10T09:59:03.192Z,25.03
2017-10-10T10:01:29.865Z,27.37
2017-10-10T10:03:56.544Z,26.33
2017-10-10T10:06:23.221Z,21.83
2017-10-10T10:08:49.958Z,27.50
2017-10-10T10:11:16.641Z,27.77
2017-10-10T10:13:43.331Z,23.47
2017-10-10T10:16:10.013Z,26.80
2017-10-10T10:18:36.715Z,26.60
2017-10-10T10:21:03.417Z,27.30
2017-10-10T10:23:30.101Z,29.73
2017-10-10T10:25:56.791Z,25.87
2017-10-10T10:28:23.487Z,22.80
2017-10-10T10:30:50.156Z,27.57
2017-10-10T10:33:16.865Z,29.57
2017-10-10T10:35:43.543Z,34.50
2017-10-10T10:38:10.251Z,27.20
2017-10-10T10:40:36.946Z,36.03
2017-10-10T10:43:03.639Z,28.07
2017-10-10T10:45:30.312Z,26.80
2017-10-10T10:47:56.998Z,36.00
2017-10-10T10:50:23.669Z,24.50
2017-10-10T10:52:50.403Z,24.80
2017-10-10T10:55:17.093Z,31.70
2017-10-10T10:57:43.781Z,35.47
2017-10-10T11:00:10.467Z,29.90
2017-10-10T11:02:37.152Z,28.77
2017-10-10T11:05:03.830Z,28.00
2017-10-10T11:07:30.510Z,28.20
2017-10-10T11:09:57.225Z,32.10
2017-10-10T11:12:23.898Z,32.00
2017-10-10T11:14:50.593Z,30.67
2017-10-10T11:17:17.286Z,23.00
2017-10-10T11:19:43.941Z,28.60
2017-10-10T11:22:10.629Z,22.80
2017-10-10T11:24:37.292Z,23.97
2017-10-10T11:27:03.985Z,24.80
2017-10-10T11:29:30.686Z,24.47
2017-10-10T11:31:57.375Z,25.90
2017-10-10T11:34:24.061Z,24.83
2017-10-10T11:36:50.729Z,24.13
2017-10-10T11:39:17.427Z,28.40
2017-10-10T11:41:44.116Z,23.60
2017-10-10T11:44:10.811Z,25.53
2017-10-10T11:46:37.498Z,23.90
2017-10-10T11:49:04.191Z,24.30
2017-10-10T11:51:30.874Z,20.83
2017-10-10T11:53:57.543Z,22.57
2017-10-10T11:56:24.254Z,21.00
2017-10-10T11:58:50.938Z,22.63
2017-10-10T12:01:17.633Z,20.10
2017-10-10T12:03:44.313Z,20.30
2017-10-10T12:06:11.027Z,14.13
2017-10-10T12:08:37.724Z,15.43
2017-10-10T12:11:04.390Z,20.50
2017-10-10T12:13:31.084Z,14.03
2017-10-10T12:15:58.755Z,17.67
2017-10-10T12:18:25.424Z,17.60
2017-10-10T12:20:52.114Z,15.23
2017-10-10T12:23:18.809Z,15.67
2017-10-10T12:25:45.501Z,20.23
2017-10-10T12:28:12.173Z,16.27
2017-10-10T12:30:38.858Z,14.37
2017-10-10T12:33:05.548Z,15.60
2017-10-10T12:35:32.229Z,14.80
2017-10-10T12:37:58.941Z,16.87
2017-10-10T12:40:25.644Z,19.33
2017-10-10T12:42:52.337Z,14.40
2017-10-10T12:45:19.013Z,14.83
2017-10-10T12:47:45.702Z,12.37
2017-10-10T12:50:12.426Z,11.27
2017-10-10T12:52:39.159Z,9.40
2017-10-10T12:55:05.822Z,10.27
2017-10-10T12:57:32.517Z,10.13
2017-10-10T12:59:59.218Z,13.13
2017-10-10T13:02:25.923Z,10.40
2017-10-10T13:04:52.597Z,13.73
2017-10-10T13:07:19.290Z,10.40
2017-10-10T13:09:46.349Z,9.83
2017-10-10T13:12:13.012Z,11.53
2017-10-10T13:14:39.648Z,11.77
2017-10-10T13:17:06.322Z,10.83
2017-10-10T13:19:32.946Z,14.07
2017-10-10T13:21:59.604Z,11.27
2017-10-10T13:24:26.257Z,13.43
2017-10-10T13:26:52.879Z,12.90
2017-10-10T13:29:19.560Z,12.33
2017-10-10T13:31:46.340Z,11.63
2017-10-10T13:34:12.984Z,8.90
2017-10-10T13:36:39.594Z,12.00
2017-10-10T13:39:06.224Z,10.73
2017-10-10T13:41:32.854Z,12.10
2017-10-10T13:43:59.492Z,11.50
2017-10-10T13:46:26.119Z,8.67
2017-10-10T13:48:52.773Z,12.50
2017-10-10T13:51:19.412Z,11.80
2017-10-10T13:53:46.065Z,11.63
2017-10-10T13:56:12.676Z,10.13
2017-10-10T13:58:39.332Z,12.53
2017-10-10T14:01:05.958Z,10.13
2017-10-10T14:03:32.575Z,9.70
2017-10-10T14:05:59.208Z,8.10
2017-10-10T14:08:25.820Z,7.90
2017-10-10T14:10:52.826Z,7.57
2017-10-10T14:13:19.469Z,8.20
2017-10-10T14:15:46.090Z,12.57
2017-10-10T14:18:12.751Z,8.73
2017-10-10T14:20:39.403Z,7.00
2017-10-10T14:23:06.024Z,9.13
2017-10-10T14:25:32.663Z,8.00
2017-10-10T14:27:59.303Z,10.60
2017-10-10T14:30:25.953Z,18.47
2017-10-10T14:32:52.603Z,12.83
2017-10-10T14:35:19.227Z,7.90
2017-10-10T14:37:45.865Z,11.67
2017-10-10T14:40:12.512Z,7.37
2017-10-10T14:42:39.133Z,8.20
2017-10-10T14:45:05.758Z,7.83
2017-10-10T14:47:32.378Z,10.27
2017-10-10T14:49:59.015Z,9.50
2017-10-10T14:52:25.687Z,5.77
2017-10-10T14:54:52.303Z,12.97
2017-10-10T14:57:18.938Z,7.40
2017-10-10T14:59:45.963Z,8.00
2017-10-10T15:02:12.583Z,11.90
2017-10-10T15:04:39.237Z,12.07
2017-10-10T15:07:05.871Z,9.27
2017-10-10T15:09:32.515Z,12.30
2017-10-10T15:11:59.124Z,16.80
2017-10-10T15:14:25.783Z,12.10
2017-10-10T15:16:52.480Z,9.37
2017-10-10T15:19:19.107Z,10.30
2017-10-10T15:21:45.758Z,6.10
2017-10-10T15:24:12.369Z,8.60
2017-10-10T15:26:39.016Z,6.70
2017-10-10T15:29:05.641Z,5.67
2017-10-10T15:31:32.271Z,9.40
2017-10-10T15:33:58.906Z,9.07
2017-10-10T15:36:25.537Z,7.00
2017-10-10T15:38:52.170Z,12.30
2017-10-10T15:41:18.815Z,10.37
2017-10-10T15:43:45.495Z,7.60
2017-10-10T15:46:12.134Z,11.47
2017-10-10T15:48:38.749Z,8.33
2017-10-10T15:51:05.395Z,5.27
2017-10-10T15:53:32.027Z,9.43
2017-10-10T15:55:58.679Z,7.77
2017-10-10T15:58:25.322Z,7.37
2017-10-10T16:00:51.936Z,14.00
2017-10-10T16:03:18.571Z,14.03
2017-10-10T16:05:45.203Z,9.73
2017-10-10T16:08:11.835Z,11.27
2017-10-10T16:10:38.483Z,11.93
2017-10-10T16:13:05.124Z,10.50
2017-10-10T16:15:31.762Z,9.07
2017-10-10T16:17:58.391Z,8.37
2017-10-10T16:20:25.027Z,9.17
2017-10-10T16:22:51.683Z,9.93
2017-10-10T16:25:18.339Z,5.80
2017-10-10T16:27:45.015Z,6.30
2017-10-10T16:30:11.672Z,7.23
2017-10-10T16:32:38.294Z,9.13
2017-10-10T16:35:04.921Z,13.40
2017-10-10T16:37:31.548Z,7.20
2017-10-10T16:39:58.206Z,8.83
2017-10-10T16:42:25.704Z,9.80
2017-10-10T16:44:52.332Z,7.20
2017-10-10T16:47:19.012Z,13.33
2017-10-10T16:49:45.648Z,8.50
2017-10-10T16:52:12.293Z,9.63
2017-10-10T16:54:38.946Z,8.63
2017-10-10T16:57:05.579Z,7.23
2017-10-10T16:59:32.214Z,14.50
2017-10-10T17:01:58.866Z,6.77
2017-10-10T17:04:25.496Z,10.03
2017-10-10T17:06:52.172Z,9.90
2017-10-10T17:09:18.807Z,12.57
2017-10-10T17:11:45.422Z,8.73
2017-10-10T17:14:12.088Z,5.90
2017-10-10T17:16:38.718Z,8.80
2017-10-10T17:19:05.354Z,8.30
2017-10-10T17:21:32.007Z,8.53
2017-10-10T17:23:58.631Z,9.27
2017-10-10T17:26:25.314Z,10.97
2017-10-10T17:28:51.920Z,11.23
2017-10-10T17:31:18.551Z,16.80
2017-10-10T17:33:45.189Z,7.23
2017-10-10T17:36:11.811Z,12.37
2017-10-10T17:38:38.457Z,8.20
2017-10-10T17:41:05.083Z,10.40
2017-10-10T17:43:31.722Z,13.60
2017-10-10T17:45:58.380Z,9.20
2017-10-10T17:48:25.008Z,9.27
2017-10-10T17:50:51.649Z,11.10
2017-10-10T17:53:18.282Z,9.30
2017-10-10T17:55:44.911Z,9.03
2017-10-10T17:58:11.567Z,8.17
2017-10-10T18:00:38.222Z,13.10
2017-10-10T18:03:04.859Z,10.43
2017-10-10T18:05:31.494Z,7.60
2017-10-10T18:07:58.154Z,9.63
2017-10-10T18:10:24.774Z,7.60
2017-10-10T18:12:51.421Z,10.70
2017-10-10T18:15:18.036Z,10.60
2017-10-10T18:17:44.683Z,10.03
2017-10-10T18:20:11.314Z,10.10
2017-10-10T18:22:37.935Z,12.07
2017-10-10T18:25:04.607Z,8.00
2017-10-10T18:27:31.254Z,11.50
2017-10-10T18:29:57.876Z,12.90
2017-10-10T18:32:24.506Z,10.40
2017-10-10T18:34:51.159Z,13.23
2017-10-10T18:37:17.835Z,11.80
2017-10-10T18:39:44.454Z,12.10
2017-10-10T18:42:11.092Z,12.20
2017-10-10T18:44:37.756Z,14.33
2017-10-10T18:47:04.436Z,15.50
2017-10-10T18:49:31.100Z,10.00
2017-10-10T18:51:57.728Z,15.03
2017-10-10T18:54:24.334Z,9.17
2017-10-10T18:56:50.959Z,11.83
2017-10-10T18:59:17.633Z,13.20
2017-10-10T19:01:44.250Z,11.30
2017-10-10T19:04:10.885Z,8.80
2017-10-10T19:06:37.520Z,10.83
2017-10-10T19:09:04.185Z,9.30
2017-10-10T19:11:30.860Z,10.20
2017-10-10T19:13:57.493Z,14.83
2017-10-10T19:16:24.139Z,11.67
2017-10-10T19:18:50.809Z,15.30
2017-10-10T19:21:17.459Z,15.53
2017-10-10T19:23:44.101Z,19.87
2017-10-10T19:26:10.725Z,11.30
2017-10-10T19:28:37.387Z,10.77
2017-10-10T19:31:04.037Z,16.47
2017-10-10T19:33:30.652Z,13.53
2017-10-10T19:35:57.330Z,15.43
2017-10-10T19:38:23.997Z,13.83
2017-10-10T19:40:50.646Z,12.40
2017-10-10T19:43:17.292Z,15.90
2017-10-10T19:45:43.934Z,14.00
2017-10-10T19:48:10.584Z,11.80
2017-10-10T19:50:37.215Z,14.10
2017-10-10T19:53:03.855Z,13.83
2017-10-10T19:55:30.526Z,16.93
2017-10-10T19:57:57.147Z,13.90
2017-10-10T20:00:23.776Z,16.70
2017-10-10T20:02:50.615Z,13.23
2017-10-10T20:05:17.347Z,15.40
2017-10-10T20:07:43.975Z,11.00
2017-10-10T20:10:10.618Z,15.20
2017-10-10T20:12:37.265Z,13.57
2017-10-10T20:15:03.920Z,14.90
2017-10-10T20:17:30.555Z,14.93
2017-10-10T20:19:57.218Z,12.83
2017-10-10T20:22:23.838Z,13.17
2017-10-10T20:24:50.458Z,13.10
2017-10-10T20:27:17.088Z,12.07
2017-10-10T20:29:44.087Z,15.00
2017-10-10T20:32:10.722Z,14.40
2017-10-10T20:34:37.354Z,12.83
2017-10-10T20:37:03.971Z,13.70
2017-10-10T20:39:30.611Z,11.00
2017-10-10T20:41:57.237Z,13.23
2017-10-10T20:44:23.899Z,21.43
2017-10-10T20:46:50.539Z,14.67
2017-10-10T20:49:17.182Z,17.80
2017-10-10T20:51:43.818Z,13.73
2017-10-10T20:54:10.466Z,15.47
2017-10-10T20:56:37.076Z,15.90
2017-10-10T20:59:03.753Z,13.70
2017-10-10T21:01:30.370Z,13.83
2017-10-10T21:03:57.041Z,15.43
2017-10-10T21:06:23.684Z,16.00
2017-10-10T21:08:50.303Z,13.33
2017-10-10T21:11:16.955Z,13.00
2017-10-10T21:13:43.591Z,15.77
2017-10-10T21:16:10.218Z,15.50
2017-10-10T21:18:36.864Z,17.17
2017-10-10T21:21:03.507Z,17.93
2017-10-10T21:23:30.160Z,13.00
2017-10-10T21:25:56.826Z,16.03
2017-10-10T21:28:23.447Z,13.93
2017-10-10T21:30:50.082Z,14.63
2017-10-10T21:33:16.726Z,19.87
2017-10-10T21:35:43.370Z,18.60
2017-10-10T21:38:09.995Z,19.43
2017-10-10T21:40:36.609Z,17.50
2017-10-10T21:43:03.277Z,15.40
2017-10-10T21:45:29.900Z,15.23
2017-10-10T21:47:56.542Z,15.17
2017-10-10T21:50:23.293Z,17.00
2017-10-10T21:52:49.931Z,14.67
2017-10-10T21:55:16.576Z,17.40
2017-10-10T21:57:43.202Z,17.77
2017-10-10T22:00:09.831Z,15.00
2017-10-10T22:02:36.466Z,15.73
2017-10-10T22:05:03.106Z,17.80
2017-10-10T22:07:29.759Z,13.50
2017-10-10T22:09:56.399Z,16.20
2017-10-10T22:12:23.049Z,14.43
2017-10-10T22:14:49.709Z,18.07
2017-10-10T22:17:16.340Z,20.13
2017-10-10T22:19:43.015Z,14.53
2017-10-10T22:22:09.644Z,19.47
2017-10-10T22:24:36.262Z,17.97
2017-10-10T22:27:02.902Z,12.23
2017-10-10T22:29:29.525Z,16.37
2017-10-10T22:31:56.185Z,17.17
2017-10-10T22:34:22.831Z,16.17
2017-10-10T22:36:49.462Z,18.77
2017-10-10T22:39:16.135Z,16.07
2017-10-10T22:41:42.765Z,14.80
2017-10-10T22:44:09.414Z,15.90
2017-10-10T22:46:36.024Z,15.57
2017-10-10T22:49:02.662Z,15.57
2017-10-10T22:51:29.294Z,15.13
2017-10-10T22:53:55.919Z,21.13
2017-10-10T22:56:22.567Z,15.70
2017-10-10T22:58:49.206Z,14.83
2017-10-10T23:01:15.852Z,15.83
2017-10-10T23:03:42.471Z,18.60
2017-10-10T23:06:09.104Z,16.07
2017-10-10T23:08:35.742Z,15.83
2017-10-10T23:11:02.367Z,14.80
2017-10-10T23:13:29.011Z,14.90
2017-10-10T23:15:55.647Z,18.70
2017-10-10T23:18:22.263Z,17.00
2017-10-10T23:20:48.903Z,15.70
2017-10-10T23:23:15.531Z,15.43
2017-10-10T23:25:42.172Z,16.07
2017-10-10T23:28:08.801Z,18.10
2017-10-10T23:30:35.404Z,19.77
2017-10-10T23:33:02.051Z,15.83
2017-10-10T23:35:28.674Z,18.70
2017-10-10T23:37:55.283Z,23.53
2017-10-10T23:40:21.919Z,19.97
2017-10-10T23:42:48.535Z,18.77
2017-10-10T23:45:15.174Z,17.30
2017-10-10T23:47:41.808Z,16.47
2017-10-10T23:50:08.423Z,19.87
2017-10-10T23:52:35.065Z,17.10
2017-10-10T23:55:01.685Z,23.60
2017-10-10T23:57:28.331Z,18.53
2017-10-10T23:59:54.948Z,20.30
